sensor_id;sensor_type;location;lat;lon;timestamp;pressure;altitude;pressure_sealevel;temperature;humidity
61742;BME280;47650;49.848;9.620;2023-05-29T00:01:18;99807.28;;;12.85;58.98
61742;BME280;47650;49.848;9.620;2023-05-29T00:03:44;99813.13;;;12.88;58.94
61742;BME280;47650;49.848;9.620;2023-05-29T00:06:10;99808.22;;;12.75;59.50
61742;BME280;47650;49.848;9.620;2023-05-29T00:08:39;99810.41;;;12.80;59.41
61742;BME280;47650;49.848;9.620;2023-05-29T00:11:05;99797.06;;;12.72;59.13
61742;BME280;47650;49.848;9.620;2023-05-29T00:13:31;99808.38;;;12.74;59.11
61742;BME280;47650;49.848;9.620;2023-05-29T00:15:58;99790.28;;;12.59;59.04
61742;BME280;47650;49.848;9.620;2023-05-29T00:18:26;99816.97;;;12.68;59.79
61742;BME280;47650;49.848;9.620;2023-05-29T00:20:52;99738.16;;;12.22;60.22
61742;BME280;47650;49.848;9.620;2023-05-29T00:23:18;99815.63;;;12.64;59.88
61742;BME280;47650;49.848;9.620;2023-05-29T00:25:44;99780.13;;;12.37;59.45
61742;BME280;47650;49.848;9.620;2023-05-29T00:28:09;99802.00;;;12.49;59.40
61742;BME280;47650;49.848;9.620;2023-05-29T00:30:37;99815.16;;;12.50;59.01
61742;BME280;47650;49.848;9.620;2023-05-29T00:33:02;99820.41;;;12.42;59.40
61742;BME280;47650;49.848;9.620;2023-05-29T00:35:28;99808.41;;;12.38;59.31
61742;BME280;47650;49.848;9.620;2023-05-29T00:37:53;99810.16;;;12.29;59.60
61742;BME280;47650;49.848;9.620;2023-05-29T00:40:18;99765.19;;;12.00;59.96
61742;BME280;47650;49.848;9.620;2023-05-29T00:42:44;99820.94;;;12.28;59.95
61742;BME280;47650;49.848;9.620;2023-05-29T00:45:13;99818.56;;;12.25;60.58
61742;BME280;47650;49.848;9.620;2023-05-29T00:47:41;99801.47;;;12.09;60.19
61742;BME280;47650;49.848;9.620;2023-05-29T00:50:09;99707.06;;;11.41;60.09
61742;BME280;47650;49.848;9.620;2023-05-29T00:52:37;99817.13;;;12.12;60.48
61742;BME280;47650;49.848;9.620;2023-05-29T00:55:06;99818.56;;;12.07;59.92
61742;BME280;47650;49.848;9.620;2023-05-29T00:57:34;99816.34;;;12.02;60.23
61742;BME280;47650;49.848;9.620;2023-05-29T01:00:02;99758.41;;;11.60;60.12
61742;BME280;47650;49.848;9.620;2023-05-29T01:02:36;99798.56;;;11.75;60.13
61742;BME280;47650;49.848;9.620;2023-05-29T01:05:02;99744.53;;;11.38;59.90
61742;BME280;47650;49.848;9.620;2023-05-29T01:07:29;99820.31;;;11.88;60.21
61742;BME280;47650;49.848;9.620;2023-05-29T01:09:55;99822.56;;;11.83;60.13
61742;BME280;47650;49.848;9.620;2023-05-29T01:12:55;99821.22;;;11.79;60.17
61742;BME280;47650;49.848;9.620;2023-05-29T01:15:41;99817.47;;;11.72;60.40
61742;BME280;47650;49.848;9.620;2023-05-29T01:21:21;99823.78;;;11.61;60.52
61742;BME280;47650;49.848;9.620;2023-05-29T01:24:26;99822.56;;;11.55;61.55
61742;BME280;47650;49.848;9.620;2023-05-29T01:27:00;99826.66;;;11.50;60.83
61742;BME280;47650;49.848;9.620;2023-05-29T01:29:30;99823.59;;;11.44;61.18
61742;BME280;47650;49.848;9.620;2023-05-29T01:31:58;99807.16;;;11.31;61.63
61742;BME280;47650;49.848;9.620;2023-05-29T01:34:33;99824.47;;;11.35;61.39
61742;BME280;47650;49.848;9.620;2023-05-29T01:37:03;99810.81;;;11.30;62.04
61742;BME280;47650;49.848;9.620;2023-05-29T01:39:31;99809.53;;;11.24;61.87
61742;BME280;47650;49.848;9.620;2023-05-29T01:41:58;99815.25;;;11.29;61.98
61742;BME280;47650;49.848;9.620;2023-05-29T01:44:24;99732.22;;;10.72;61.49
61742;BME280;47650;49.848;9.620;2023-05-29T01:46:50;99839.63;;;11.15;62.20
61742;BME280;47650;49.848;9.620;2023-05-29T01:49:17;99804.97;;;11.17;62.18
61742;BME280;47650;49.848;9.620;2023-05-29T01:51:43;99764.72;;;10.84;62.54
61742;BME280;47650;49.848;9.620;2023-05-29T01:54:09;99813.09;;;11.05;62.70
61742;BME280;47650;49.848;9.620;2023-05-29T01:56:41;99814.38;;;11.01;62.42
61742;BME280;47650;49.848;9.620;2023-05-29T01:59:15;99810.34;;;10.97;62.73
61742;BME280;47650;49.848;9.620;2023-05-29T02:01:42;99820.22;;;10.95;62.46
61742;BME280;47650;49.848;9.620;2023-05-29T02:04:09;99811.59;;;10.93;63.52
61742;BME280;47650;49.848;9.620;2023-05-29T02:06:40;99710.91;;;10.25;63.16
61742;BME280;47650;49.848;9.620;2023-05-29T02:09:11;99784.13;;;10.75;63.27
61742;BME280;47650;49.848;9.620;2023-05-29T02:11:38;99724.56;;;10.40;62.84
61742;BME280;47650;49.848;9.620;2023-05-29T02:14:04;99758.19;;;10.59;62.70
61742;BME280;47650;49.848;9.620;2023-05-29T02:16:29;99755.66;;;10.57;62.98
61742;BME280;47650;49.848;9.620;2023-05-29T02:19:00;99801.44;;;10.79;63.17
61742;BME280;47650;49.848;9.620;2023-05-29T02:21:26;99769.50;;;10.61;63.23
61742;BME280;47650;49.848;9.620;2023-05-29T02:23:52;99802.53;;;10.76;63.18
61742;BME280;47650;49.848;9.620;2023-05-29T02:26:17;99813.28;;;10.84;63.59
61742;BME280;47650;49.848;9.620;2023-05-29T02:28:42;99819.72;;;10.82;63.90
61742;BME280;47650;49.848;9.620;2023-05-29T02:31:11;99808.41;;;10.80;63.30
61742;BME280;47650;49.848;9.620;2023-05-29T02:33:38;99800.59;;;10.68;64.03
61742;BME280;47650;49.848;9.620;2023-05-29T02:36:06;99775.78;;;10.50;63.61
61742;BME280;47650;49.848;9.620;2023-05-29T02:38:37;99719.13;;;10.12;63.95
61742;BME280;47650;49.848;9.620;2023-05-29T02:41:03;99818.19;;;10.69;64.02
61742;BME280;47650;49.848;9.620;2023-05-29T02:43:28;99795.84;;;10.62;64.59
61742;BME280;47650;49.848;9.620;2023-05-29T02:45:55;99801.88;;;10.64;64.87
61742;BME280;47650;49.848;9.620;2023-05-29T02:48:21;99718.59;;;10.18;64.77
61742;BME280;47650;49.848;9.620;2023-05-29T02:50:48;99805.63;;;10.71;64.67
61742;BME280;47650;49.848;9.620;2023-05-29T02:53:13;99802.97;;;10.71;64.17
61742;BME280;47650;49.848;9.620;2023-05-29T02:55:39;99809.84;;;10.64;64.43
61742;BME280;47650;49.848;9.620;2023-05-29T02:58:06;99798.41;;;10.54;64.33
61742;BME280;47650;49.848;9.620;2023-05-29T03:00:31;99796.00;;;10.51;64.08
61742;BME280;47650;49.848;9.620;2023-05-29T03:03:04;99749.13;;;10.22;63.99
61742;BME280;47650;49.848;9.620;2023-05-29T03:05:31;99746.59;;;10.21;63.75
61742;BME280;47650;49.848;9.620;2023-05-29T03:07:57;99787.22;;;10.41;64.04
61742;BME280;47650;49.848;9.620;2023-05-29T03:10:24;99815.84;;;10.47;63.97
61742;BME280;47650;49.848;9.620;2023-05-29T03:12:49;99793.91;;;10.45;63.94
61742;BME280;47650;49.848;9.620;2023-05-29T03:15:14;99719.41;;;9.89;64.67
61742;BME280;47650;49.848;9.620;2023-05-29T03:17:42;99801.16;;;10.43;64.70
61742;BME280;47650;49.848;9.620;2023-05-29T03:20:07;99808.44;;;10.41;64.40
61742;BME280;47650;49.848;9.620;2023-05-29T03:22:34;99808.72;;;10.38;64.52
61742;BME280;47650;49.848;9.620;2023-05-29T03:25:01;99815.97;;;10.35;64.21
61742;BME280;47650;49.848;9.620;2023-05-29T03:27:29;99799.19;;;10.25;64.12
61742;BME280;47650;49.848;9.620;2023-05-29T03:29:55;99808.38;;;10.31;64.06
61742;BME280;47650;49.848;9.620;2023-05-29T03:32:21;99806.72;;;10.30;64.29
61742;BME280;47650;49.848;9.620;2023-05-29T03:34:53;99811.16;;;10.29;64.64
61742;BME280;47650;49.848;9.620;2023-05-29T03:37:23;99813.13;;;10.27;65.20
61742;BME280;47650;49.848;9.620;2023-05-29T03:39:48;99820.94;;;10.29;64.98
61742;BME280;47650;49.848;9.620;2023-05-29T03:42:15;99810.22;;;10.30;65.33
61742;BME280;47650;49.848;9.620;2023-05-29T03:44:41;99813.59;;;10.32;65.07
61742;BME280;47650;49.848;9.620;2023-05-29T03:47:13;99752.59;;;9.93;64.82
61742;BME280;47650;49.848;9.620;2023-05-29T03:49:38;99681.88;;;9.45;64.80
61742;BME280;47650;49.848;9.620;2023-05-29T03:52:04;99820.72;;;10.42;64.62
61742;BME280;47650;49.848;9.620;2023-05-29T03:54:30;99821.41;;;10.44;64.47
61742;BME280;47650;49.848;9.620;2023-05-29T03:56:57;99827.00;;;10.50;64.38
61742;BME280;47650;49.848;9.620;2023-05-29T03:59:23;99823.94;;;10.45;65.42
61742;BME280;47650;49.848;9.620;2023-05-29T04:01:49;99831.88;;;10.55;65.03
61742;BME280;47650;49.848;9.620;2023-05-29T04:04:15;99828.09;;;10.58;65.02
61742;BME280;47650;49.848;9.620;2023-05-29T04:06:40;99834.94;;;10.60;64.64
61742;BME280;47650;49.848;9.620;2023-05-29T04:09:06;99858.94;;;10.59;64.76
61742;BME280;47650;49.848;9.620;2023-05-29T04:11:32;99853.38;;;10.71;64.17
61742;BME280;47650;49.848;9.620;2023-05-29T04:14:00;99854.47;;;10.79;64.06
61742;BME280;47650;49.848;9.620;2023-05-29T04:16:27;99837.47;;;10.71;64.25
61742;BME280;47650;49.848;9.620;2023-05-29T04:18:56;99867.28;;;10.93;64.50
61742;BME280;47650;49.848;9.620;2023-05-29T04:21:21;99851.66;;;10.90;64.31
61742;BME280;47650;49.848;9.620;2023-05-29T04:23:47;99872.19;;;11.07;64.49
61742;BME280;47650;49.848;9.620;2023-05-29T04:26:15;99872.16;;;11.17;64.38
61742;BME280;47650;49.848;9.620;2023-05-29T04:28:42;99873.38;;;11.23;64.34
61742;BME280;47650;49.848;9.620;2023-05-29T04:31:08;99861.78;;;11.34;64.21
61742;BME280;47650;49.848;9.620;2023-05-29T04:33:40;99875.88;;;11.44;63.73
61742;BME280;47650;49.848;9.620;2023-05-29T04:36:06;99876.81;;;11.53;63.60
61742;BME280;47650;49.848;9.620;2023-05-29T04:38:33;99879.41;;;11.62;63.59
61742;BME280;47650;49.848;9.620;2023-05-29T04:41:03;99873.25;;;11.72;63.22
61742;BME280;47650;49.848;9.620;2023-05-29T04:43:29;99881.31;;;11.80;63.07
61742;BME280;47650;49.848;9.620;2023-05-29T04:45:56;99880.34;;;11.91;62.98
61742;BME280;47650;49.848;9.620;2023-05-29T04:48:23;99882.91;;;12.00;63.05
61742;BME280;47650;49.848;9.620;2023-05-29T04:50:51;99891.69;;;12.11;62.81
61742;BME280;47650;49.848;9.620;2023-05-29T04:53:16;99821.22;;;11.79;62.46
61742;BME280;47650;49.848;9.620;2023-05-29T04:55:44;99887.78;;;12.33;62.49
61742;BME280;47650;49.848;9.620;2023-05-29T04:58:11;99888.41;;;12.45;62.01
61742;BME280;47650;49.848;9.620;2023-05-29T05:00:38;99896.00;;;12.57;62.16
61742;BME280;47650;49.848;9.620;2023-05-29T05:03:15;99895.66;;;12.70;61.91
61742;BME280;47650;49.848;9.620;2023-05-29T05:05:42;99889.94;;;12.83;61.71
61742;BME280;47650;49.848;9.620;2023-05-29T05:08:09;99904.81;;;12.94;62.07
61742;BME280;47650;49.848;9.620;2023-05-29T05:10:37;99908.44;;;13.11;61.78
61742;BME280;47650;49.848;9.620;2023-05-29T05:13:03;99907.00;;;13.16;61.31
61742;BME280;47650;49.848;9.620;2023-05-29T05:15:32;99908.38;;;13.21;62.39
61742;BME280;47650;49.848;9.620;2023-05-29T05:17:57;99907.38;;;13.40;61.99
61742;BME280;47650;49.848;9.620;2023-05-29T05:20:25;99909.16;;;13.57;61.57
61742;BME280;47650;49.848;9.620;2023-05-29T05:22:51;99908.41;;;13.73;61.41
61742;BME280;47650;49.848;9.620;2023-05-29T05:25:17;99904.31;;;13.87;60.26
61742;BME280;47650;49.848;9.620;2023-05-29T05:27:45;99906.34;;;14.01;59.79
61742;BME280;47650;49.848;9.620;2023-05-29T05:30:11;99839.13;;;13.73;59.59
61742;BME280;47650;49.848;9.620;2023-05-29T05:32:37;99915.47;;;14.33;59.15
61742;BME280;47650;49.848;9.620;2023-05-29T05:35:02;99908.53;;;14.48;57.60
61742;BME280;47650;49.848;9.620;2023-05-29T05:37:29;99916.91;;;14.62;58.39
61742;BME280;47650;49.848;9.620;2023-05-29T05:39:54;99918.28;;;14.74;58.83
61742;BME280;47650;49.848;9.620;2023-05-29T05:42:19;99908.78;;;14.80;59.22
61742;BME280;47650;49.848;9.620;2023-05-29T05:47:12;99921.31;;;15.12;59.30
61742;BME280;47650;49.848;9.620;2023-05-29T05:49:39;99918.28;;;15.32;59.00
61742;BME280;47650;49.848;9.620;2023-05-29T05:52:05;99867.91;;;14.71;59.43
61742;BME280;47650;49.848;9.620;2023-05-29T05:54:31;99856.38;;;14.95;57.66
61742;BME280;47650;49.848;9.620;2023-05-29T05:56:56;99916.28;;;15.26;58.01
61742;BME280;47650;49.848;9.620;2023-05-29T05:59:27;99894.72;;;15.35;58.49
61742;BME280;47650;49.848;9.620;2023-05-29T06:01:54;99927.09;;;15.82;56.81
61742;BME280;47650;49.848;9.620;2023-05-29T06:04:20;99929.56;;;15.83;56.98
61742;BME280;47650;49.848;9.620;2023-05-29T06:06:46;99931.84;;;16.03;56.61
61742;BME280;47650;49.848;9.620;2023-05-29T06:09:11;99927.66;;;16.40;55.61
61742;BME280;47650;49.848;9.620;2023-05-29T06:11:39;99924.34;;;16.38;54.46
61742;BME280;47650;49.848;9.620;2023-05-29T06:14:05;99880.09;;;16.50;53.75
61742;BME280;47650;49.848;9.620;2023-05-29T06:16:33;99917.28;;;16.68;53.25
61742;BME280;47650;49.848;9.620;2023-05-29T06:19:03;99885.66;;;16.71;52.07
61742;BME280;47650;49.848;9.620;2023-05-29T06:21:29;99907.16;;;16.78;52.66
61742;BME280;47650;49.848;9.620;2023-05-29T06:23:55;99905.78;;;16.59;52.02
61742;BME280;47650;49.848;9.620;2023-05-29T06:26:20;99929.88;;;17.14;52.01
61742;BME280;47650;49.848;9.620;2023-05-29T06:28:46;99928.00;;;16.99;52.09
61742;BME280;47650;49.848;9.620;2023-05-29T06:31:14;99926.97;;;17.23;51.56
61742;BME280;47650;49.848;9.620;2023-05-29T06:33:41;99883.28;;;17.00;49.94
61742;BME280;47650;49.848;9.620;2023-05-29T06:36:07;99931.50;;;17.91;49.57
61742;BME280;47650;49.848;9.620;2023-05-29T06:38:32;99927.50;;;18.16;48.66
61742;BME280;47650;49.848;9.620;2023-05-29T06:40:58;99930.09;;;18.10;49.04
61742;BME280;47650;49.848;9.620;2023-05-29T06:43:24;99933.13;;;17.77;49.71
61742;BME280;47650;49.848;9.620;2023-05-29T06:45:49;99931.09;;;18.23;48.11
61742;BME280;47650;49.848;9.620;2023-05-29T06:48:15;99928.63;;;18.07;48.31
61742;BME280;47650;49.848;9.620;2023-05-29T06:50:43;99931.19;;;17.71;49.31
61742;BME280;47650;49.848;9.620;2023-05-29T06:53:08;99917.47;;;18.40;47.68
61742;BME280;47650;49.848;9.620;2023-05-29T06:55:34;99922.09;;;18.83;47.66
61742;BME280;47650;49.848;9.620;2023-05-29T06:58:00;99906.44;;;18.86;46.19
61742;BME280;47650;49.848;9.620;2023-05-29T07:00:25;99853.59;;;18.93;45.84
61742;BME280;47650;49.848;9.620;2023-05-29T07:02:51;99894.94;;;19.49;44.19
61742;BME280;47650;49.848;9.620;2023-05-29T07:05:16;99909.63;;;19.75;43.28
61742;BME280;47650;49.848;9.620;2023-05-29T07:07:42;99922.47;;;20.21;41.97
61742;BME280;47650;49.848;9.620;2023-05-29T07:10:08;99922.19;;;20.02;41.13
61742;BME280;47650;49.848;9.620;2023-05-29T07:12:33;99919.25;;;20.45;40.15
61742;BME280;47650;49.848;9.620;2023-05-29T07:14:59;99908.97;;;20.07;39.85
61742;BME280;47650;49.848;9.620;2023-05-29T07:17:25;99910.53;;;20.43;40.13
61742;BME280;47650;49.848;9.620;2023-05-29T07:19:50;99916.88;;;20.77;38.89
61742;BME280;47650;49.848;9.620;2023-05-29T07:22:18;99902.97;;;20.67;39.81
61742;BME280;47650;49.848;9.620;2023-05-29T07:24:45;99873.94;;;20.62;37.90
61742;BME280;47650;49.848;9.620;2023-05-29T07:27:11;99920.00;;;21.34;37.09
61742;BME280;47650;49.848;9.620;2023-05-29T07:29:37;99914.00;;;21.19;36.81
61742;BME280;47650;49.848;9.620;2023-05-29T07:32:03;99917.94;;;21.63;37.37
61742;BME280;47650;49.848;9.620;2023-05-29T07:34:29;99916.69;;;21.66;36.17
61742;BME280;47650;49.848;9.620;2023-05-29T07:37:05;99910.75;;;22.09;35.96
61742;BME280;47650;49.848;9.620;2023-05-29T07:39:31;99882.56;;;21.91;36.42
61742;BME280;47650;49.848;9.620;2023-05-29T07:41:58;99906.16;;;22.16;36.17
61742;BME280;47650;49.848;9.620;2023-05-29T07:44:24;99910.72;;;22.29;35.32
61742;BME280;47650;49.848;9.620;2023-05-29T07:46:49;99904.06;;;22.18;35.48
61742;BME280;47650;49.848;9.620;2023-05-29T07:49:16;99910.25;;;22.39;36.10
61742;BME280;47650;49.848;9.620;2023-05-29T07:51:42;99875.47;;;22.49;36.15
61742;BME280;47650;49.848;9.620;2023-05-29T07:54:08;99877.78;;;22.00;35.25
61742;BME280;47650;49.848;9.620;2023-05-29T07:56:33;99890.22;;;22.53;35.69
61742;BME280;47650;49.848;9.620;2023-05-29T07:59:00;99896.31;;;22.73;35.15
61742;BME280;47650;49.848;9.620;2023-05-29T08:01:26;99916.41;;;23.16;34.54
61742;BME280;47650;49.848;9.620;2023-05-29T08:03:52;99878.25;;;22.99;35.19
61742;BME280;47650;49.848;9.620;2023-05-29T08:06:18;99914.03;;;23.01;34.75
61742;BME280;47650;49.848;9.620;2023-05-29T08:08:54;99918.16;;;23.54;34.49
61742;BME280;47650;49.848;9.620;2023-05-29T08:11:24;99883.47;;;23.26;34.67
61742;BME280;47650;49.848;9.620;2023-05-29T08:13:51;99826.75;;;23.38;33.37
61742;BME280;47650;49.848;9.620;2023-05-29T08:16:17;99897.63;;;23.90;34.27
61742;BME280;47650;49.848;9.620;2023-05-29T08:18:43;99915.59;;;24.03;32.63
61742;BME280;47650;49.848;9.620;2023-05-29T08:21:08;99910.47;;;24.13;33.78
61742;BME280;47650;49.848;9.620;2023-05-29T08:23:37;99914.03;;;24.44;32.32
61742;BME280;47650;49.848;9.620;2023-05-29T08:26:03;99910.69;;;24.30;32.64
61742;BME280;47650;49.848;9.620;2023-05-29T08:28:29;99903.66;;;24.59;31.87
61742;BME280;47650;49.848;9.620;2023-05-29T08:30:57;99886.34;;;24.72;32.04
61742;BME280;47650;49.848;9.620;2023-05-29T08:33:24;99896.63;;;24.82;33.25
61742;BME280;47650;49.848;9.620;2023-05-29T08:35:49;99899.31;;;24.40;32.03
61742;BME280;47650;49.848;9.620;2023-05-29T08:38:21;99902.09;;;24.94;32.99
61742;BME280;47650;49.848;9.620;2023-05-29T08:40:48;99890.56;;;24.99;31.28
61742;BME280;47650;49.848;9.620;2023-05-29T08:43:21;99892.22;;;24.39;31.73
61742;BME280;47650;49.848;9.620;2023-05-29T08:45:54;99874.56;;;24.48;33.25
61742;BME280;47650;49.848;9.620;2023-05-29T08:48:23;99893.00;;;25.00;30.08
61742;BME280;47650;49.848;9.620;2023-05-29T08:50:52;99881.84;;;25.20;29.16
61742;BME280;47650;49.848;9.620;2023-05-29T08:53:21;99867.47;;;25.55;28.39
61742;BME280;47650;49.848;9.620;2023-05-29T08:55:47;99832.66;;;25.17;28.47
61742;BME280;47650;49.848;9.620;2023-05-29T08:58:17;99872.88;;;25.79;28.19
61742;BME280;47650;49.848;9.620;2023-05-29T09:00:44;99835.44;;;25.69;28.41
61742;BME280;47650;49.848;9.620;2023-05-29T09:03:12;99842.28;;;26.24;27.69
61742;BME280;47650;49.848;9.620;2023-05-29T09:05:39;99810.69;;;26.52;25.66
61742;BME280;47650;49.848;9.620;2023-05-29T09:08:06;99832.94;;;26.94;26.43
61742;BME280;47650;49.848;9.620;2023-05-29T09:10:32;99823.84;;;26.89;24.60
61742;BME280;47650;49.848;9.620;2023-05-29T09:12:59;99858.03;;;26.68;24.13
61742;BME280;47650;49.848;9.620;2023-05-29T09:15:25;99868.13;;;27.74;23.11
61742;BME280;47650;49.848;9.620;2023-05-29T09:17:56;99856.78;;;29.61;22.50
61742;BME280;47650;49.848;9.620;2023-05-29T09:20:23;99839.66;;;30.85;20.10
61742;BME280;47650;49.848;9.620;2023-05-29T09:23:03;99842.88;;;32.93;18.99
61742;BME280;47650;49.848;9.620;2023-05-29T09:25:33;99838.38;;;34.04;17.58
61742;BME280;47650;49.848;9.620;2023-05-29T09:28:06;99846.88;;;35.86;15.72
61742;BME280;47650;49.848;9.620;2023-05-29T09:30:36;99840.94;;;38.26;13.87
61742;BME280;47650;49.848;9.620;2023-05-29T09:33:05;99841.78;;;40.58;11.63
61742;BME280;47650;49.848;9.620;2023-05-29T09:35:46;99839.88;;;39.09;11.99
61742;BME280;47650;49.848;9.620;2023-05-29T09:38:16;99804.22;;;39.89;11.29
61742;BME280;47650;49.848;9.620;2023-05-29T09:40:50;99794.91;;;40.14;11.08
61742;BME280;47650;49.848;9.620;2023-05-29T09:43:17;99839.50;;;40.39;11.51
61742;BME280;47650;49.848;9.620;2023-05-29T09:45:48;99841.03;;;40.82;11.12
61742;BME280;47650;49.848;9.620;2023-05-29T09:48:25;99834.19;;;42.84;9.41
61742;BME280;47650;49.848;9.620;2023-05-29T09:50:57;99766.47;;;42.39;9.46
61742;BME280;47650;49.848;9.620;2023-05-29T09:53:28;99819.84;;;42.98;9.13
61742;BME280;47650;49.848;9.620;2023-05-29T09:55:54;99826.94;;;43.75;8.92
61742;BME280;47650;49.848;9.620;2023-05-29T09:58:22;99668.25;;;42.90;8.28
61742;BME280;47650;49.848;9.620;2023-05-29T10:00:53;99801.44;;;42.65;8.65
61742;BME280;47650;49.848;9.620;2023-05-29T10:03:19;99782.94;;;41.51;9.23
61742;BME280;47650;49.848;9.620;2023-05-29T10:05:51;99816.16;;;39.68;10.70
61742;BME280;47650;49.848;9.620;2023-05-29T10:08:18;99826.34;;;41.40;9.66
61742;BME280;47650;49.848;9.620;2023-05-29T10:11:07;99831.03;;;41.02;10.26
61742;BME280;47650;49.848;9.620;2023-05-29T10:13:38;99836.31;;;40.83;9.61
61742;BME280;47650;49.848;9.620;2023-05-29T10:16:07;99781.00;;;39.42;10.24
61742;BME280;47650;49.848;9.620;2023-05-29T10:18:37;99825.84;;;41.62;9.60
61742;BME280;47650;49.848;9.620;2023-05-29T10:21:05;99842.88;;;38.34;11.69
61742;BME280;47650;49.848;9.620;2023-05-29T10:23:33;99836.50;;;39.42;10.78
61742;BME280;47650;49.848;9.620;2023-05-29T10:26:11;99813.06;;;41.00;9.88
61742;BME280;47650;49.848;9.620;2023-05-29T10:28:39;99827.47;;;42.28;9.81
61742;BME280;47650;49.848;9.620;2023-05-29T10:31:15;99826.56;;;41.34;10.32
61742;BME280;47650;49.848;9.620;2023-05-29T10:34:02;99816.69;;;43.15;9.05
61742;BME280;47650;49.848;9.620;2023-05-29T10:36:38;99832.91;;;41.23;9.89
61742;BME280;47650;49.848;9.620;2023-05-29T10:39:08;99757.91;;;41.02;9.80
61742;BME280;47650;49.848;9.620;2023-05-29T10:41:35;99804.50;;;44.69;7.81
61742;BME280;47650;49.848;9.620;2023-05-29T10:47:06;99815.13;;;45.29;7.68
61742;BME280;47650;49.848;9.620;2023-05-29T10:49:34;99818.59;;;44.14;8.76
61742;BME280;47650;49.848;9.620;2023-05-29T10:52:00;99747.22;;;43.62;8.81
61742;BME280;47650;49.848;9.620;2023-05-29T10:54:26;99823.13;;;44.42;8.33
61742;BME280;47650;49.848;9.620;2023-05-29T10:56:56;99766.97;;;44.27;8.34
61742;BME280;47650;49.848;9.620;2023-05-29T10:59:22;99799.53;;;45.82;6.98
61742;BME280;47650;49.848;9.620;2023-05-29T11:01:52;99819.59;;;45.57;7.56
61742;BME280;47650;49.848;9.620;2023-05-29T11:06:48;99808.22;;;45.23;7.80
61742;BME280;47650;49.848;9.620;2023-05-29T11:12:24;99809.09;;;45.50;7.78
61742;BME280;47650;49.848;9.620;2023-05-29T11:15:10;99781.19;;;45.57;6.87
61742;BME280;47650;49.848;9.620;2023-05-29T11:17:45;99768.16;;;45.42;7.80
61742;BME280;47650;49.848;9.620;2023-05-29T11:22:51;99800.16;;;47.11;6.87
61742;BME280;47650;49.848;9.620;2023-05-29T11:25:20;99800.63;;;45.73;7.54
61742;BME280;47650;49.848;9.620;2023-05-29T11:27:47;99813.81;;;42.96;8.84
61742;BME280;47650;49.848;9.620;2023-05-29T11:30:15;99814.63;;;45.47;7.30
61742;BME280;47650;49.848;9.620;2023-05-29T11:32:44;99788.78;;;44.61;7.82
61742;BME280;47650;49.848;9.620;2023-05-29T11:35:10;99784.03;;;43.16;8.85
61742;BME280;47650;49.848;9.620;2023-05-29T11:37:41;99811.34;;;44.52;8.70
61742;BME280;47650;49.848;9.620;2023-05-29T11:40:12;99803.09;;;45.78;7.42
61742;BME280;47650;49.848;9.620;2023-05-29T11:42:46;99787.38;;;47.76;6.99
61742;BME280;47650;49.848;9.620;2023-05-29T11:45:16;99769.75;;;47.86;7.01
61742;BME280;47650;49.848;9.620;2023-05-29T11:47:58;99784.84;;;48.62;6.39
61742;BME280;47650;49.848;9.620;2023-05-29T11:50:26;99782.03;;;48.41;6.53
61742;BME280;47650;49.848;9.620;2023-05-29T11:52:53;99752.63;;;47.32;7.11
61742;BME280;47650;49.848;9.620;2023-05-29T11:55:22;99787.84;;;47.85;7.02
61742;BME280;47650;49.848;9.620;2023-05-29T11:57:50;99792.28;;;45.50;7.73
61742;BME280;47650;49.848;9.620;2023-05-29T12:00:18;99775.50;;;48.11;6.89
61742;BME280;47650;49.848;9.620;2023-05-29T12:02:45;99769.38;;;47.91;6.38
61742;BME280;47650;49.848;9.620;2023-05-29T12:05:15;99776.50;;;45.65;7.63
61742;BME280;47650;49.848;9.620;2023-05-29T12:07:51;99779.00;;;46.34;7.43
61742;BME280;47650;49.848;9.620;2023-05-29T12:10:20;99768.44;;;47.03;7.18
61742;BME280;47650;49.848;9.620;2023-05-29T12:12:51;99764.25;;;48.04;6.75
61742;BME280;47650;49.848;9.620;2023-05-29T12:15:17;99778.09;;;45.13;7.87
61742;BME280;47650;49.848;9.620;2023-05-29T12:17:44;99776.97;;;46.35;7.28
61742;BME280;47650;49.848;9.620;2023-05-29T12:20:12;99778.25;;;46.07;7.59
61742;BME280;47650;49.848;9.620;2023-05-29T12:22:40;99776.84;;;49.07;6.31
61742;BME280;47650;49.848;9.620;2023-05-29T12:25:12;99772.34;;;46.91;7.20
61742;BME280;47650;49.848;9.620;2023-05-29T12:27:43;99779.31;;;44.92;8.42
61742;BME280;47650;49.848;9.620;2023-05-29T12:30:11;99751.50;;;49.07;6.17
61742;BME280;47650;49.848;9.620;2023-05-29T12:32:38;99759.13;;;48.53;6.40
61742;BME280;47650;49.848;9.620;2023-05-29T12:40:30;99761.53;;;51.34;5.33
61742;BME280;47650;49.848;9.620;2023-05-29T12:43:03;99777.09;;;43.97;8.27
61742;BME280;47650;49.848;9.620;2023-05-29T12:45:32;99754.63;;;45.48;7.87
61742;BME280;47650;49.848;9.620;2023-05-29T12:48:05;99778.16;;;46.00;7.79
61742;BME280;47650;49.848;9.620;2023-05-29T12:50:40;99772.81;;;45.88;7.94
61742;BME280;47650;49.848;9.620;2023-05-29T12:53:12;99767.84;;;46.42;7.19
61742;BME280;47650;49.848;9.620;2023-05-29T12:55:40;99759.59;;;46.22;7.86
61742;BME280;47650;49.848;9.620;2023-05-29T12:58:17;99761.44;;;47.34;6.62
61742;BME280;47650;49.848;9.620;2023-05-29T13:00:43;99754.59;;;48.01;6.90
61742;BME280;47650;49.848;9.620;2023-05-29T13:03:10;99691.63;;;48.56;6.35
61742;BME280;47650;49.848;9.620;2023-05-29T13:05:38;99754.75;;;50.27;6.17
61742;BME280;47650;49.848;9.620;2023-05-29T13:08:04;99676.47;;;49.75;5.61
61742;BME280;47650;49.848;9.620;2023-05-29T13:10:32;99746.66;;;49.04;6.36
61742;BME280;47650;49.848;9.620;2023-05-29T13:12:57;99712.06;;;48.21;6.32
61742;BME280;47650;49.848;9.620;2023-05-29T13:15:25;99758.28;;;46.87;7.56
61742;BME280;47650;49.848;9.620;2023-05-29T13:17:52;99758.59;;;46.04;7.35
61742;BME280;47650;49.848;9.620;2023-05-29T13:20:18;99750.59;;;48.06;6.64
61742;BME280;47650;49.848;9.620;2023-05-29T13:22:45;99732.03;;;49.78;5.94
61742;BME280;47650;49.848;9.620;2023-05-29T13:25:12;99731.22;;;51.00;5.09
61742;BME280;47650;49.848;9.620;2023-05-29T13:27:40;99714.34;;;50.93;4.74
61742;BME280;47650;49.848;9.620;2023-05-29T13:30:07;99728.63;;;50.15;5.61